Time;durP1;ratioP1;P1;durP2;ratioP2;P2;SDS_P1;SDS_P2;PMS_P1;PMS_P2;Temp;Humidity;BMP_temperature;BMP_pressure;BME280_temperature;BME280_humidity;BME280_pressure;Samples;Min_cycle;Max_cycle;Signal;HPM_P1;HPM_P2
2024/01/17 00:00:30;;;;;;;1.65;1.13;;;-5.70;99.90;;;;;;5083319;28;20033;-84
2024/01/17 00:02:56;;;;;;;5.57;1.38;;;-5.70;99.90;;;;;;5078157;28;20039;-85
2024/01/17 00:05:23;;;;;;;1.83;1.67;;;-5.60;99.90;;;;;;5078651;28;20040;-85
2024/01/17 00:07:49;;;;;;;1.13;1.02;;;-5.60;99.90;;;;;;5081247;28;20036;-85
2024/01/17 00:10:16;;;;;;;0.40;0.40;;;-5.70;99.90;;;;;;5084110;28;20242;-85
2024/01/17 00:12:42;;;;;;;1.35;1.27;;;-5.70;99.90;;;;;;5078040;28;20028;-86
2024/01/17 00:15:09;;;;;;;0.38;0.38;;;-5.80;99.90;;;;;;5076186;28;20033;-85
2024/01/17 00:17:35;;;;;;;0.35;0.35;;;-5.80;99.90;;;;;;5079561;28;20473;-85
2024/01/17 00:20:01;;;;;;;0.50;0.50;;;-5.80;99.90;;;;;;5080987;28;20474;-84
2024/01/17 00:22:27;;;;;;;1.13;1.05;;;-5.80;99.90;;;;;;5079657;28;20024;-85
2024/01/17 00:24:53;;;;;;;1.38;1.00;;;-5.80;99.90;;;;;;5074190;28;20469;-85
2024/01/17 00:27:23;;;;;;;3.70;1.02;;;-5.80;99.90;;;;;;5079915;28;20040;-85
2024/01/17 00:29:57;;;;;;;0.55;0.55;;;-5.80;99.90;;;;;;5079327;28;20033;-84
2024/01/17 00:32:24;;;;;;;5.40;1.00;;;-5.80;99.90;;;;;;5079214;28;20473;-85
2024/01/17 00:34:51;;;;;;;1.27;1.17;;;-5.80;99.90;;;;;;5077087;28;20040;-86
2024/01/17 00:37:17;;;;;;;1.38;1.27;;;-5.70;99.90;;;;;;5077161;28;20473;-83
2024/01/17 00:39:43;;;;;;;0.95;0.68;;;-5.60;99.90;;;;;;5081749;28;20051;-85
2024/01/17 00:42:09;;;;;;;1.20;1.13;;;-5.60;99.90;;;;;;5083592;28;20496;-85
2024/01/17 00:44:38;;;;;;;8.15;5.68;;;-5.60;99.90;;;;;;5079171;28;20032;-85
2024/01/17 00:47:05;;;;;;;0.10;0.10;;;-5.60;99.90;;;;;;5077727;28;20039;-85
2024/01/17 00:49:31;;;;;;;0.88;0.88;;;-5.60;99.90;;;;;;5081951;28;20397;-85
2024/01/17 00:51:58;;;;;;;0.20;0.20;;;-5.50;99.90;;;;;;5062961;28;20473;-78
2024/01/17 00:54:24;;;;;;;0.50;0.45;;;-5.50;99.90;;;;;;5078427;28;20039;-84
2024/01/17 00:56:50;;;;;;;1.33;1.25;;;-5.40;99.90;;;;;;5076591;28;20033;-85
2024/01/17 00:59:16;;;;;;;1.23;1.17;;;-5.40;99.90;;;;;;5061449;28;20891;-83
2024/01/17 01:01:43;;;;;;;1.52;1.42;;;-5.40;99.90;;;;;;5080914;28;20036;-85
2024/01/17 01:04:09;;;;;;;0.40;0.40;;;-5.40;99.90;;;;;;5089006;28;20029;-83
2024/01/17 01:06:35;;;;;;;0.70;0.65;;;-5.50;99.90;;;;;;5105658;28;20017;-82
2024/01/17 01:09:01;;;;;;;0.95;0.95;;;-5.50;99.90;;;;;;5106117;28;20024;-83
2024/01/17 01:11:32;;;;;;;1.20;1.15;;;-5.50;99.90;;;;;;5102676;28;20032;-81
2024/01/17 01:13:59;;;;;;;0.30;0.30;;;-5.50;99.90;;;;;;5104640;28;20068;-77
2024/01/17 01:16:25;;;;;;;1.63;1.38;;;-5.40;99.90;;;;;;5103100;28;20024;-81
2024/01/17 01:18:51;;;;;;;3.25;1.98;;;-5.40;99.90;;;;;;5093242;28;20024;-85
2024/01/17 01:21:17;;;;;;;0.40;0.40;;;-5.40;99.90;;;;;;5082193;28;20025;-85
2024/01/17 01:23:43;;;;;;;6.32;4.07;;;-5.50;99.90;;;;;;5082117;28;20028;-85
2024/01/17 01:26:10;;;;;;;3.63;3.25;;;-5.50;99.90;;;;;;5082071;28;20032;-84
2024/01/17 01:28:36;;;;;;;3.85;3.50;;;-5.60;99.90;;;;;;5084596;28;20142;-84
2024/01/17 01:31:02;;;;;;;0.47;0.47;;;-5.60;99.90;;;;;;5064718;28;20037;-83
2024/01/17 01:33:28;;;;;;;0.80;0.80;;;-5.60;99.90;;;;;;5084937;28;20033;-81
2024/01/17 01:35:54;;;;;;;3.22;1.42;;;-5.50;99.90;;;;;;5082766;28;20048;-86
2024/01/17 01:38:21;;;;;;;0.10;0.10;;;-5.50;99.90;;;;;;5045755;28;20854;-86
2024/01/17 01:40:47;;;;;;;4.78;1.92;;;-5.50;99.90;;;;;;5071447;28;20047;-85
2024/01/17 01:43:20;;;;;;;1.25;1.13;;;-5.40;99.90;;;;;;5063102;28;20037;-84
2024/01/17 01:46:03;;;;;;;1.65;1.40;;;-5.40;99.90;;;;;;5065097;28;20028;-85
2024/01/17 01:48:31;;;;;;;4.85;3.63;;;-5.50;99.90;;;;;;5060349;28;20045;-85
2024/01/17 01:50:58;;;;;;;3.78;3.42;;;-5.40;99.90;;;;;;5063188;28;20382;-85
2024/01/17 01:53:25;;;;;;;0.63;0.63;;;-5.50;99.90;;;;;;5047720;28;20548;-85
2024/01/17 01:55:53;;;;;;;0.77;0.77;;;-5.50;99.90;;;;;;5063001;28;20779;-85
2024/01/17 01:58:21;;;;;;;0.13;0.13;;;-5.60;99.90;;;;;;5064309;28;20556;-84
2024/01/17 02:00:49;;;;;;;2.95;1.25;;;-5.60;99.90;;;;;;5044453;28;20037;-84
2024/01/17 02:03:15;;;;;;;4.40;1.80;;;-5.60;99.90;;;;;;5060195;28;20029;-84
2024/01/17 02:05:42;;;;;;;3.20;1.08;;;-5.60;99.90;;;;;;5061786;28;20060;-85
2024/01/17 02:08:09;;;;;;;4.72;1.60;;;-5.70;99.90;;;;;;5063898;28;20484;-85
2024/01/17 02:10:35;;;;;;;1.25;1.15;;;-5.60;99.90;;;;;;5043746;28;20036;-85
2024/01/17 02:13:02;;;;;;;0.25;0.25;;;-5.60;99.90;;;;;;5060887;28;20032;-78
2024/01/17 02:15:29;;;;;;;0.20;0.20;;;-5.50;99.90;;;;;;5061171;28;20029;-84
2024/01/17 02:17:55;;;;;;;0.57;0.57;;;-5.50;99.90;;;;;;5062982;28;20044;-85
2024/01/17 02:20:21;;;;;;;0.32;0.32;;;-5.50;99.90;;;;;;5065691;28;20032;-84
2024/01/17 02:22:48;;;;;;;4.78;1.85;;;-5.50;99.90;;;;;;5059204;28;20032;-83
2024/01/17 02:25:14;;;;;;;0.93;0.93;;;-5.40;99.90;;;;;;5061729;28;20503;-85
2024/01/17 02:27:40;;;;;;;2.58;2.30;;;-5.40;99.90;;;;;;5063154;28;20037;-86
2024/01/17 02:30:07;;;;;;;0.25;0.25;;;-5.40;99.90;;;;;;5060065;28;20033;-86
2024/01/17 02:32:35;;;;;;;0.65;0.65;;;-5.30;99.90;;;;;;5066027;28;20041;-86
2024/01/17 02:35:02;;;;;;;0.82;0.82;;;-5.30;99.90;;;;;;5063976;28;20025;-85
2024/01/17 02:37:30;;;;;;;0.55;0.35;;;-5.30;99.90;;;;;;5076602;28;20393;-84
2024/01/17 02:39:56;;;;;;;1.88;1.20;;;-5.30;99.90;;;;;;5083695;28;20032;-85
2024/01/17 02:42:22;;;;;;;1.10;1.08;;;-5.20;99.90;;;;;;5079026;28;20036;-85
2024/01/17 02:44:48;;;;;;;0.10;0.10;;;-5.30;99.90;;;;;;5082004;28;20032;-84
2024/01/17 02:47:14;;;;;;;0.22;0.22;;;-5.30;99.90;;;;;;5079737;28;20041;-85
2024/01/17 02:49:40;;;;;;;0.43;0.43;;;-5.20;99.90;;;;;;5080360;28;20033;-84
2024/01/17 02:52:06;;;;;;;3.55;2.47;;;-5.20;99.90;;;;;;5084296;28;20031;-83
2024/01/17 02:54:33;;;;;;;1.25;0.98;;;-5.20;99.90;;;;;;5060293;28;20040;-84
2024/01/17 02:56:59;;;;;;;0.65;0.65;;;-5.20;99.90;;;;;;5079769;28;20032;-85
2024/01/17 02:59:25;;;;;;;0.10;0.10;;;-5.20;99.90;;;;;;5079195;28;20377;-85
2024/01/17 03:01:53;;;;;;;1.55;1.45;;;-5.20;99.90;;;;;;5081315;28;20031;-84
2024/01/17 03:04:19;;;;;;;0.40;0.40;;;-5.20;99.90;;;;;;5079470;28;20056;-85
2024/01/17 03:06:49;;;;;;;1.83;1.70;;;-5.20;99.90;;;;;;5074096;28;20047;-83
2024/01/17 03:09:15;;;;;;;0.00;0.00;;;-5.20;99.90;;;;;;5078619;28;20143;-85
2024/01/17 03:11:41;;;;;;;1.38;0.38;;;-5.20;99.90;;;;;;5080858;28;20047;-84
2024/01/17 03:14:07;;;;;;;9.35;2.20;;;-5.10;99.90;;;;;;5077260;28;20039;-84
2024/01/17 03:16:36;;;;;;;0.73;0.73;;;-5.10;99.90;;;;;;5047046;28;20051;-85
2024/01/17 03:19:02;;;;;;;2.92;0.85;;;-5.10;99.90;;;;;;5070211;28;20473;-84
2024/01/17 03:21:28;;;;;;;0.93;0.85;;;-5.10;99.90;;;;;;5082213;28;20898;-84
2024/01/17 03:23:55;;;;;;;0.85;0.85;;;-5.10;99.90;;;;;;5062275;28;20051;-85
2024/01/17 03:26:22;;;;;;;1.55;1.45;;;-5.10;99.90;;;;;;5079087;28;20043;-85
2024/01/17 03:28:48;;;;;;;4.65;0.63;;;-5.10;99.90;;;;;;5074241;28;20044;-84
2024/01/17 03:31:14;;;;;;;0.38;0.38;;;-5.10;99.90;;;;;;5080241;28;20035;-85
2024/01/17 03:33:40;;;;;;;1.67;1.23;;;-5.10;99.90;;;;;;5061659;28;20036;-85
2024/01/17 03:36:07;;;;;;;0.50;0.50;;;-5.10;99.90;;;;;;5080898;28;20041;-86
2024/01/17 03:38:33;;;;;;;2.63;2.22;;;-5.10;99.90;;;;;;5076914;28;20048;-83
2024/01/17 03:41:00;;;;;;;0.45;0.45;;;-5.00;99.90;;;;;;5078577;28;20033;-85
2024/01/17 03:43:27;;;;;;;5.32;2.28;;;-4.90;99.90;;;;;;5079584;28;20021;-86
2024/01/17 03:45:57;;;;;;;13.05;2.72;;;-4.90;99.90;;;;;;5079280;28;20044;-86
2024/01/17 03:48:23;;;;;;;4.32;1.50;;;-4.90;99.90;;;;;;5076787;28;20044;-84
2024/01/17 03:50:50;;;;;;;0.60;0.57;;;-4.80;99.90;;;;;;5078993;28;20035;-85
2024/01/17 03:53:16;;;;;;;0.45;0.45;;;-4.80;99.90;;;;;;5076994;28;20033;-84
2024/01/17 03:55:42;;;;;;;8.02;3.85;;;-4.80;99.90;;;;;;5079661;28;20032;-84
2024/01/17 03:58:08;;;;;;;11.00;1.85;;;-4.80;99.90;;;;;;5075568;28;20032;-85
2024/01/17 04:00:35;;;;;;;11.50;2.80;;;-4.80;99.90;;;;;;5078456;28;20028;-85
2024/01/17 04:03:01;;;;;;;2.10;1.98;;;-4.80;99.90;;;;;;5085819;28;20036;-85
2024/01/17 04:05:27;;;;;;;0.15;0.15;;;-4.80;99.90;;;;;;5082854;28;20056;-85
2024/01/17 04:07:53;;;;;;;0.82;0.77;;;-4.80;99.90;;;;;;5075782;28;20036;-84
2024/01/17 04:10:19;;;;;;;7.95;3.17;;;-4.80;99.90;;;;;;5079267;28;20365;-85
2024/01/17 04:12:45;;;;;;;1.27;1.25;;;-4.80;99.90;;;;;;5079403;28;20032;-86
2024/01/17 04:15:12;;;;;;;2.22;2.03;;;-4.80;99.90;;;;;;5061322;28;20037;-85
2024/01/17 04:17:39;;;;;;;8.77;2.30;;;-4.80;99.90;;;;;;5076931;28;20028;-85
2024/01/17 04:20:06;;;;;;;1.58;1.48;;;-4.80;99.90;;;;;;5078881;28;20400;-84
2024/01/17 04:22:33;;;;;;;2.15;1.95;;;-4.70;99.90;;;;;;5079103;28;20040;-85
2024/01/17 04:25:00;;;;;;;2.05;1.60;;;-4.70;99.90;;;;;;5080101;28;20029;-82
2024/01/17 04:27:28;;;;;;;1.08;1.08;;;-4.70;99.90;;;;;;5078521;28;20256;-84
2024/01/17 04:29:54;;;;;;;3.40;1.58;;;-4.60;99.90;;;;;;5061244;28;20040;-84
2024/01/17 04:32:20;;;;;;;1.63;1.52;;;-4.60;99.90;;;;;;5084336;28;20032;-84
2024/01/17 04:34:46;;;;;;;0.22;0.22;;;-4.50;99.90;;;;;;5045703;28;20032;-84
2024/01/17 04:37:12;;;;;;;1.48;1.00;;;-4.60;99.90;;;;;;5079553;28;20052;-83
2024/01/17 04:39:39;;;;;;;1.60;1.48;;;-4.50;99.90;;;;;;5078491;28;20032;-84
2024/01/17 04:42:05;;;;;;;1.38;1.33;;;-4.40;99.90;;;;;;5083911;28;20035;-83
2024/01/17 04:44:32;;;;;;;1.55;1.45;;;-4.40;99.90;;;;;;5082966;28;20036;-84
2024/01/17 04:46:59;;;;;;;1.45;0.50;;;-4.40;99.90;;;;;;5071694;28;20043;-86
2024/01/17 04:49:27;;;;;;;3.33;2.42;;;-4.30;99.90;;;;;;5080396;28;20055;-84
2024/01/17 04:51:54;;;;;;;3.30;2.75;;;-4.30;99.90;;;;;;5081812;28;20036;-84
2024/01/17 04:54:22;;;;;;;3.55;1.95;;;-4.30;99.90;;;;;;5083510;28;20036;-84
2024/01/17 04:56:49;;;;;;;0.28;0.28;;;-4.20;99.90;;;;;;5082726;28;20397;-84
2024/01/17 04:59:15;;;;;;;4.15;2.08;;;-4.20;99.90;;;;;;5088273;28;20393;-82
2024/01/17 05:01:41;;;;;;;2.03;1.85;;;-4.20;99.90;;;;;;5084747;28;20028;-82
2024/01/17 05:04:08;;;;;;;2.53;1.73;;;-4.10;99.90;;;;;;5085434;28;20032;-75
2024/01/17 05:06:34;;;;;;;1.90;1.15;;;-4.10;99.90;;;;;;5082969;28;20044;-82
2024/01/17 05:09:03;;;;;;;2.13;1.05;;;-4.10;99.90;;;;;;5083698;28;20043;-83
2024/01/17 05:11:29;;;;;;;1.88;1.75;;;-4.00;99.90;;;;;;5082311;28;20043;-82
2024/01/17 05:13:55;;;;;;;0.95;0.93;;;-4.10;99.90;;;;;;5081273;28;20052;-83
2024/01/17 05:16:22;;;;;;;3.55;2.05;;;-4.10;99.90;;;;;;5084010;28;20355;-82
2024/01/17 05:18:48;;;;;;;1.90;1.80;;;-4.00;99.90;;;;;;5083456;28;20044;-82
2024/01/17 05:21:14;;;;;;;0.52;0.52;;;-4.10;99.90;;;;;;5082723;28;20040;-82
2024/01/17 05:23:40;;;;;;;2.30;2.10;;;-4.10;99.90;;;;;;5082171;28;20043;-80
2024/01/17 05:26:06;;;;;;;4.32;2.70;;;-4.10;99.90;;;;;;5082392;28;20055;-81
2024/01/17 05:28:33;;;;;;;1.33;1.23;;;-4.00;99.90;;;;;;5084035;28;20038;-82
2024/01/17 05:30:59;;;;;;;1.33;0.70;;;-4.00;99.90;;;;;;5084842;28;20484;-80
2024/01/17 05:33:25;;;;;;;1.40;1.35;;;-4.00;99.90;;;;;;5081452;28;20454;-80
2024/01/17 05:35:51;;;;;;;1.55;1.23;;;-4.00;99.90;;;;;;5083540;28;20039;-81
2024/01/17 05:38:18;;;;;;;3.03;2.83;;;-4.00;99.90;;;;;;5080216;28;20053;-81
2024/01/17 05:40:44;;;;;;;0.52;0.52;;;-4.00;99.90;;;;;;5082125;28;20033;-81
2024/01/17 05:43:10;;;;;;;0.60;0.60;;;-3.90;99.90;;;;;;5081558;28;20039;-79
2024/01/17 05:45:36;;;;;;;0.13;0.13;;;-3.90;99.90;;;;;;5064650;28;20036;-81
2024/01/17 05:48:02;;;;;;;3.83;2.90;;;-3.80;99.90;;;;;;5078612;28;20028;-80
2024/01/17 05:50:29;;;;;;;0.65;0.65;;;-3.80;99.90;;;;;;5083363;28;20384;-80
2024/01/17 05:52:55;;;;;;;0.20;0.20;;;-3.80;99.90;;;;;;5082301;28;20601;-80
2024/01/17 05:55:21;;;;;;;1.48;1.38;;;-3.80;99.90;;;;;;5081682;28;20032;-81
2024/01/17 05:57:48;;;;;;;0.90;0.85;;;-3.80;99.90;;;;;;5078272;28;20037;-81
2024/01/17 06:00:14;;;;;;;0.60;0.57;;;-3.70;99.90;;;;;;5064261;28;20053;-80
2024/01/17 06:02:42;;;;;;;0.17;0.17;;;-3.70;99.90;;;;;;5084066;28;20495;-80
2024/01/17 06:05:08;;;;;;;1.75;1.65;;;-3.70;99.90;;;;;;5082256;28;20037;-81
2024/01/17 06:07:35;;;;;;;1.92;0.75;;;-3.70;99.90;;;;;;5081845;28;20040;-81
2024/01/17 06:10:02;;;;;;;0.28;0.25;;;-3.60;99.90;;;;;;5084210;28;20024;-82
2024/01/17 06:12:29;;;;;;;0.28;0.28;;;-3.60;99.90;;;;;;5080262;28;20408;-80
2024/01/17 06:14:56;;;;;;;2.53;2.35;;;-3.60;99.90;;;;;;5082039;28;20024;-81
2024/01/17 06:17:22;;;;;;;1.95;1.40;;;-3.60;99.90;;;;;;5079298;28;20040;-79
2024/01/17 06:19:48;;;;;;;2.22;2.10;;;-3.50;99.90;;;;;;5078692;28;20039;-82
2024/01/17 06:22:18;;;;;;;1.15;1.05;;;-3.50;99.90;;;;;;5064711;28;20036;-79
2024/01/17 06:24:48;;;;;;;3.75;2.45;;;-3.60;99.90;;;;;;5083382;28;20036;-81
2024/01/17 06:27:15;;;;;;;1.58;1.48;;;-3.50;99.90;;;;;;5077685;28;20040;-81
2024/01/17 06:29:42;;;;;;;2.58;2.38;;;-3.50;99.90;;;;;;5080491;28;20476;-81
2024/01/17 06:32:08;;;;;;;1.23;0.85;;;-3.50;99.90;;;;;;5069135;28;20037;-80
2024/01/17 06:34:35;;;;;;;5.47;3.15;;;-3.50;99.90;;;;;;5080579;28;20025;-81
2024/01/17 06:37:01;;;;;;;1.13;1.08;;;-3.50;99.90;;;;;;5069295;28;20048;-81
2024/01/17 06:39:27;;;;;;;4.35;2.05;;;-3.50;1.00;;;;;;5065275;28;20393;-83
2024/01/17 06:41:53;;;;;;;0.73;0.73;;;-3.40;1.00;;;;;;5083664;28;20035;-82
2024/01/17 06:44:20;;;;;;;2.85;0.85;;;-3.40;1.00;;;;;;5080612;28;20032;-80
2024/01/17 06:46:46;;;;;;;0.45;0.43;;;-3.40;1.00;;;;;;5078803;28;20043;-81
2024/01/17 06:49:13;;;;;;;2.58;1.60;;;-3.50;1.00;;;;;;5076875;28;20040;-76
2024/01/17 06:51:39;;;;;;;2.20;1.48;;;-3.40;1.00;;;;;;5080234;28;20051;-81
2024/01/17 06:54:06;;;;;;;1.15;1.15;;;-3.40;1.00;;;;;;5086635;28;20389;-81
2024/01/17 06:56:36;;;;;;;1.50;1.35;;;-3.50;1.00;;;;;;5086525;28;20059;-80
2024/01/17 06:59:02;;;;;;;0.57;0.57;;;-3.50;1.00;;;;;;5081485;28;20044;-81
2024/01/17 07:01:28;;;;;;;2.22;1.13;;;-3.40;1.00;;;;;;5077971;28;20024;-82
2024/01/17 07:03:55;;;;;;;1.23;1.17;;;-3.40;1.00;;;;;;5079241;28;20036;-81
2024/01/17 07:06:21;;;;;;;0.63;0.60;;;-3.40;1.00;;;;;;5080799;28;20035;-82
2024/01/17 07:08:47;;;;;;;0.68;0.65;;;-3.40;1.00;;;;;;5080572;28;20054;-81
2024/01/17 07:11:14;;;;;;;5.40;1.70;;;-3.30;1.00;;;;;;5083581;28;20382;-78
2024/01/17 07:13:40;;;;;;;1.38;1.30;;;-3.30;1.00;;;;;;5072453;28;20050;-82
2024/01/17 07:16:07;;;;;;;0.55;0.55;;;-3.30;1.00;;;;;;5088481;28;20074;-81
2024/01/17 07:18:34;;;;;;;0.45;0.45;;;-3.30;1.00;;;;;;5062175;28;20240;-82
2024/01/17 07:21:06;;;;;;;6.43;1.27;;;-3.30;1.00;;;;;;5075180;28;20040;-83
2024/01/17 07:23:34;;;;;;;3.85;1.83;;;-3.20;1.00;;;;;;5078771;28;20040;-79
2024/01/17 07:26:00;;;;;;;3.53;1.80;;;-3.20;1.00;;;;;;5061619;28;20032;-85
2024/01/17 07:28:26;;;;;;;5.35;1.58;;;-3.10;1.00;;;;;;5078238;28;20028;-80
2024/01/17 07:30:53;;;;;;;2.05;1.88;;;-3.10;1.00;;;;;;5080761;28;20036;-81
2024/01/17 07:33:19;;;;;;;0.30;0.30;;;-3.10;1.00;;;;;;5078506;28;20458;-76
2024/01/17 07:35:45;;;;;;;1.92;1.60;;;-3.00;6.90;;;;;;5079411;28;20032;-76
2024/01/17 07:38:11;;;;;;;1.17;1.13;;;-3.00;27.20;;;;;;5075841;28;20055;-76
2024/01/17 07:40:37;;;;;;;2.13;1.80;;;-3.00;47.30;;;;;;5083100;28;20027;-75
2024/01/17 07:43:04;;;;;;;1.63;1.17;;;-2.90;69.50;;;;;;5080711;28;20462;-75
2024/01/17 07:45:31;;;;;;;1.65;1.30;;;-2.80;91.40;;;;;;5079327;28;20035;-74
2024/01/17 07:47:57;;;;;;;1.15;1.05;;;-2.80;99.90;;;;;;5065887;28;20040;-74
2024/01/17 07:50:23;;;;;;;0.80;0.80;;;-2.80;99.90;;;;;;5079677;28;20028;-75
2024/01/17 07:52:50;;;;;;;2.20;1.23;;;-2.80;99.90;;;;;;5077465;28;20039;-73
2024/01/17 07:55:16;;;;;;;1.02;1.02;;;-2.70;99.90;;;;;;5080623;28;20040;-76
2024/01/17 07:57:42;;;;;;;5.57;1.42;;;-2.70;99.90;;;;;;5080764;28;20044;-76
2024/01/17 08:00:11;;;;;;;3.58;3.08;;;-2.70;99.90;;;;;;5078602;28;20036;-76
2024/01/17 08:02:40;;;;;;;3.25;0.73;;;-2.60;99.90;;;;;;5078573;28;20036;-76
2024/01/17 08:05:07;;;;;;;1.58;1.48;;;-2.60;99.90;;;;;;5078394;28;20519;-76
2024/01/17 08:07:33;;;;;;;1.33;1.23;;;-2.60;99.90;;;;;;5077033;28;20036;-76
2024/01/17 08:09:59;;;;;;;1.80;1.17;;;-2.60;99.90;;;;;;5079017;28;20032;-76
2024/01/17 08:12:25;;;;;;;3.92;1.45;;;-2.50;99.90;;;;;;5079646;28;20408;-76
2024/01/17 08:14:52;;;;;;;0.65;0.65;;;-2.50;99.90;;;;;;5077015;28;20048;-76
2024/01/17 08:17:18;;;;;;;0.32;0.30;;;-2.40;99.90;;;;;;5078598;28;20484;-74
2024/01/17 08:19:45;;;;;;;4.70;1.27;;;-2.40;99.90;;;;;;5085863;28;20032;-76
2024/01/17 08:22:12;;;;;;;1.38;1.27;;;-2.40;99.90;;;;;;5082149;28;20033;-76
2024/01/17 08:24:40;;;;;;;1.92;1.83;;;-2.30;99.90;;;;;;5080717;28;20036;-76
2024/01/17 08:27:06;;;;;;;7.70;1.65;;;-2.30;1.00;;;;;;5081073;28;20039;-76
2024/01/17 08:29:33;;;;;;;8.18;2.85;;;-2.20;1.00;;;;;;5078141;28;20036;-75
2024/01/17 08:31:59;;;;;;;2.92;2.30;;;-2.30;1.00;;;;;;5082708;28;20024;-75
2024/01/17 08:34:26;;;;;;;1.42;1.38;;;-2.30;99.90;;;;;;5082951;28;20041;-74
2024/01/17 08:36:54;;;;;;;2.20;1.85;;;-2.30;99.90;;;;;;5082699;28;20404;-75
2024/01/17 08:39:21;;;;;;;1.58;1.48;;;-2.30;99.90;;;;;;5079679;28;20041;-75
2024/01/17 08:41:47;;;;;;;1.20;1.10;;;-2.20;99.90;;;;;;5082718;28;20536;-74
2024/01/17 08:44:14;;;;;;;0.80;0.80;;;-2.20;99.90;;;;;;5085830;28;20499;-74
2024/01/17 08:46:44;;;;;;;0.85;0.75;;;-2.20;99.90;;;;;;5080561;28;20037;-74
2024/01/17 08:49:10;;;;;;;1.95;1.60;;;-2.20;99.90;;;;;;5089873;28;20036;-74
2024/01/17 08:51:36;;;;;;;2.85;2.55;;;-2.20;99.90;;;;;;5081373;28;20036;-74
2024/01/17 08:54:06;;;;;;;2.08;1.98;;;-2.20;99.90;;;;;;5070897;28;20039;-74
2024/01/17 08:56:33;;;;;;;0.82;0.82;;;-2.20;99.90;;;;;;5081949;28;20040;-74
2024/01/17 08:59:01;;;;;;;1.60;0.80;;;-2.10;99.90;;;;;;5074033;28;20055;-74
2024/01/17 09:01:28;;;;;;;1.23;1.20;;;-2.10;99.90;;;;;;5081967;28;20409;-74
2024/01/17 09:03:55;;;;;;;2.17;1.67;;;-2.10;99.90;;;;;;5096671;28;20039;-74
2024/01/17 09:06:21;;;;;;;2.97;2.83;;;-2.10;99.90;;;;;;5083791;28;20028;-74
2024/01/17 09:08:47;;;;;;;1.65;1.58;;;-2.10;99.90;;;;;;5081576;28;20032;-76
2024/01/17 09:11:13;;;;;;;3.38;2.10;;;-2.10;99.90;;;;;;5078956;28;20032;-76
2024/01/17 09:13:40;;;;;;;1.35;1.25;;;-2.00;99.90;;;;;;5081793;28;20039;-76
2024/01/17 09:16:06;;;;;;;2.58;2.10;;;-2.00;1.00;;;;;;5081312;28;20032;-76
2024/01/17 09:18:32;;;;;;;3.53;2.65;;;-2.00;99.90;;;;;;5079321;28;20042;-76
2024/01/17 09:20:58;;;;;;;1.83;1.73;;;-2.00;99.90;;;;;;5078904;28;20028;-76
2024/01/17 09:23:24;;;;;;;4.78;2.28;;;-1.90;99.90;;;;;;5079597;28;20032;-76
2024/01/17 09:25:50;;;;;;;0.80;0.80;;;-1.80;1.00;;;;;;5068309;28;20051;-76
2024/01/17 09:28:17;;;;;;;1.35;1.25;;;-1.90;99.90;;;;;;5066990;28;20042;-76
2024/01/17 09:30:43;;;;;;;2.90;1.88;;;-1.90;99.90;;;;;;5077951;28;20033;-76
2024/01/17 09:33:09;;;;;;;1.48;1.38;;;-1.90;99.90;;;;;;5081703;28;20394;-76
2024/01/17 09:35:36;;;;;;;1.27;1.17;;;-1.80;99.90;;;;;;5081554;28;20035;-76
2024/01/17 09:38:06;;;;;;;4.72;3.92;;;-1.80;99.90;;;;;;5079965;28;20485;-76
2024/01/17 09:40:33;;;;;;;0.43;0.43;;;-1.80;99.90;;;;;;5079685;28;20032;-76
2024/01/17 09:43:00;;;;;;;3.25;2.58;;;-1.70;99.90;;;;;;5080943;28;20035;-76
2024/01/17 09:45:30;;;;;;;2.92;2.53;;;-1.70;1.00;;;;;;5083413;28;20036;-76
2024/01/17 09:47:56;;;;;;;1.73;1.63;;;-1.60;1.00;;;;;;5080639;28;20578;-76
2024/01/17 09:50:22;;;;;;;1.02;0.80;;;-1.60;99.90;;;;;;5082155;28;20035;-76
2024/01/17 09:52:51;;;;;;;6.82;2.15;;;-1.60;99.90;;;;;;5078178;28;20048;-76
2024/01/17 09:55:19;;;;;;;1.98;1.88;;;-1.50;99.90;;;;;;5070645;28;20465;-76
2024/01/17 09:57:51;;;;;;;2.78;2.28;;;-1.50;99.90;;;;;;5080220;28;20607;-76
2024/01/17 10:00:17;;;;;;;1.92;1.83;;;-1.50;99.90;;;;;;5079996;28;20049;-76
2024/01/17 10:02:45;;;;;;;2.40;1.92;;;-1.50;99.90;;;;;;5079949;28;20027;-76
2024/01/17 10:05:13;;;;;;;3.58;2.10;;;-1.50;99.90;;;;;;5079331;28;20040;-76
2024/01/17 10:07:39;;;;;;;1.95;1.85;;;-1.50;99.90;;;;;;5061105;28;20075;-76
2024/01/17 10:10:06;;;;;;;4.95;2.03;;;-1.50;99.90;;;;;;5092589;28;20028;-77
2024/01/17 10:12:33;;;;;;;3.08;1.70;;;-1.50;99.90;;;;;;5085303;28;20028;-76
2024/01/17 10:15:06;;;;;;;4.88;3.40;;;-1.50;99.90;;;;;;5064070;28;20044;-76
2024/01/17 10:17:35;;;;;;;1.60;1.50;;;-1.40;99.90;;;;;;5061177;28;20032;-75
2024/01/17 10:20:02;;;;;;;3.45;1.80;;;-1.40;99.90;;;;;;5043492;28;20064;-76
2024/01/17 10:22:28;;;;;;;4.88;2.88;;;-1.50;99.90;;;;;;5081004;28;20411;-75
2024/01/17 10:24:54;;;;;;;2.70;2.50;;;-1.50;99.90;;;;;;5079406;28;20500;-75
2024/01/17 10:27:21;;;;;;;2.25;2.15;;;-1.50;99.90;;;;;;5077968;28;20041;-75
2024/01/17 10:29:47;;;;;;;3.97;2.25;;;-1.50;99.90;;;;;;5079696;28;20024;-75
2024/01/17 10:32:13;;;;;;;3.33;2.83;;;-1.60;99.90;;;;;;5081156;28;20039;-75
2024/01/17 10:34:39;;;;;;;2.35;1.95;;;-1.50;99.90;;;;;;5079240;28;20879;-75
2024/01/17 10:37:07;;;;;;;2.03;1.85;;;-1.40;99.90;;;;;;5076767;28;20055;-76
2024/01/17 10:39:34;;;;;;;2.50;2.30;;;-1.40;99.90;;;;;;5083349;28;20048;-75
2024/01/17 10:42:00;;;;;;;3.88;1.17;;;-1.40;99.90;;;;;;5082129;28;20032;-75
2024/01/17 10:44:26;;;;;;;2.10;1.98;;;-1.40;99.90;;;;;;5064302;28;20028;-76
2024/01/17 10:46:54;;;;;;;0.63;0.63;;;-1.30;99.90;;;;;;5074572;28;20028;-76
2024/01/17 10:49:23;;;;;;;1.73;1.38;;;-1.30;99.90;;;;;;5077536;28;20037;-75
2024/01/17 10:52:02;;;;;;;1.60;1.23;;;-1.40;99.90;;;;;;5080694;28;20383;-75
2024/01/17 10:54:48;;;;;;;1.27;1.10;;;-1.40;99.90;;;;;;5080860;28;20035;-75
2024/01/17 10:57:15;;;;;;;0.95;0.93;;;-1.40;99.90;;;;;;5081757;28;20035;-75
2024/01/17 10:59:49;;;;;;;1.95;1.52;;;-1.30;99.90;;;;;;5073027;28;20032;-76
2024/01/17 11:02:20;;;;;;;0.80;0.80;;;-1.30;99.90;;;;;;5074347;28;20051;-75
2024/01/17 11:04:53;;;;;;;3.25;2.25;;;-1.30;99.90;;;;;;5073426;28;20031;-75
2024/01/17 11:07:21;;;;;;;6.68;2.88;;;-1.30;99.90;;;;;;5074008;28;20361;-74
2024/01/17 11:09:49;;;;;;;3.40;3.15;;;-1.30;99.90;;;;;;5082432;28;20028;-75
2024/01/17 11:12:16;;;;;;;1.75;1.65;;;-1.30;99.90;;;;;;5074704;28;20047;-75
2024/01/17 11:14:45;;;;;;;1.80;1.70;;;-1.30;99.90;;;;;;5080817;28;20032;-75
2024/01/17 11:17:13;;;;;;;4.50;3.08;;;-1.30;99.90;;;;;;5077858;28;20036;-75
2024/01/17 11:19:43;;;;;;;8.20;4.35;;;-1.30;99.90;;;;;;5076128;28;20044;-75
2024/01/17 11:22:11;;;;;;;2.50;2.30;;;-1.30;99.90;;;;;;5075369;28;20024;-75
2024/01/17 11:25:01;;;;;;;0.75;0.75;;;-1.20;99.90;;;;;;5080949;28;20024;-75
2024/01/17 11:27:40;;;;;;;6.55;2.95;;;-1.20;99.90;;;;;;5080874;28;20036;-75
2024/01/17 11:30:30;;;;;;;1.15;1.15;;;-1.20;99.90;;;;;;5077881;28;20032;-74
2024/01/17 11:33:02;;;;;;;1.05;1.05;;;-1.30;99.90;;;;;;5055666;28;20049;-75
2024/01/17 11:35:47;;;;;;;3.05;2.85;;;-1.40;99.90;;;;;;5082412;28;20033;-75
2024/01/17 11:38:27;;;;;;;1.05;0.95;;;-1.30;1.00;;;;;;5078294;28;20051;-74
2024/01/17 11:41:05;;;;;;;3.70;2.00;;;-1.20;1.00;;;;;;5075036;28;20035;-73
2024/01/17 11:43:37;;;;;;;4.40;1.40;;;-1.10;1.00;;;;;;5077802;28;20098;-74
2024/01/17 11:46:07;;;;;;;11.20;3.53;;;-1.10;1.00;;;;;;5079984;28;20044;-75
2024/01/17 11:48:38;;;;;;;1.55;1.45;;;-1.00;1.00;;;;;;5077442;28;20036;-75
2024/01/17 11:51:15;;;;;;;3.65;3.33;;;-1.00;1.00;;;;;;5073940;28;20032;-74
2024/01/17 11:53:43;;;;;;;2.22;2.10;;;-0.90;2.90;;;;;;5079593;28;20031;-74
2024/01/17 11:56:10;;;;;;;3.50;3.20;;;-1.00;21.60;;;;;;5081910;28;20043;-74
2024/01/17 11:58:42;;;;;;;4.53;1.83;;;-1.00;15.50;;;;;;5079882;28;20033;-74
2024/01/17 12:01:18;;;;;;;2.50;2.30;;;-1.10;15.40;;;;;;5074910;28;20377;-74
2024/01/17 12:03:44;;;;;;;2.67;2.17;;;-1.00;32.20;;;;;;5075945;28;20461;-74
2024/01/17 12:06:13;;;;;;;2.55;2.45;;;-1.00;44.00;;;;;;5079459;28;20036;-74
2024/01/17 12:08:40;;;;;;;2.67;2.50;;;-1.00;79.10;;;;;;5077945;28;20481;-74
2024/01/17 12:11:07;;;;;;;1.58;1.50;;;-1.00;99.90;;;;;;5076748;28;20061;-74
2024/01/17 12:13:37;;;;;;;2.08;1.92;;;-0.90;99.90;;;;;;5075361;28;20113;-75
2024/01/17 12:16:04;;;;;;;0.35;0.35;;;-0.90;99.90;;;;;;5083019;28;20028;-75
2024/01/17 12:18:32;;;;;;;1.95;1.85;;;-1.00;99.90;;;;;;5081186;28;20032;-75
2024/01/17 12:21:02;;;;;;;2.20;1.63;;;-0.90;99.90;;;;;;5078976;28;20033;-75
2024/01/17 12:23:32;;;;;;;7.43;2.58;;;-0.80;99.90;;;;;;5077818;28;20389;-76
2024/01/17 12:25:59;;;;;;;1.30;1.13;;;-0.80;99.90;;;;;;5082409;28;20032;-75
2024/01/17 12:28:29;;;;;;;1.08;1.05;;;-0.90;99.90;;;;;;5063832;28;20043;-76
2024/01/17 12:30:59;;;;;;;4.45;0.82;;;-0.80;99.90;;;;;;5074692;28;20051;-76
2024/01/17 12:33:27;;;;;;;1.75;1.65;;;-0.80;99.90;;;;;;5075520;28;20024;-76
2024/01/17 12:35:55;;;;;;;3.22;2.67;;;-0.80;99.90;;;;;;5077097;28;20107;-79
2024/01/17 12:38:21;;;;;;;2.60;2.22;;;-0.70;99.90;;;;;;5082272;28;20062;-80
2024/01/17 12:40:49;;;;;;;3.88;2.53;;;-0.60;99.90;;;;;;5077355;28;20370;-79
2024/01/17 12:43:17;;;;;;;2.05;1.60;;;-0.50;99.90;;;;;;5081799;28;20037;-80
2024/01/17 12:45:45;;;;;;;3.13;1.92;;;-0.50;99.90;;;;;;5095293;28;20035;-80
2024/01/17 12:48:14;;;;;;;3.08;1.92;;;-0.50;99.90;;;;;;5084978;28;20388;-78